sensor_id;sensor_type;location;lat;lon;timestamp;pressure;altitude;pressure_sealevel;temperature
20848;BMP180;10584;50.854;12.902;2023-04-25T00:01:58;97274.00;;;6.60
20848;BMP180;10584;50.854;12.902;2023-04-25T00:07:36;97274.00;;;6.80
20848;BMP180;10584;50.854;12.902;2023-04-25T00:13:07;97281.00;;;6.50
20848;BMP180;10584;50.854;12.902;2023-04-25T00:18:45;97282.00;;;6.40
20848;BMP180;10584;50.854;12.902;2023-04-25T00:24:29;97278.00;;;6.40
20848;BMP180;10584;50.854;12.902;2023-04-25T00:29:53;97278.00;;;6.40
20848;BMP180;10584;50.854;12.902;2023-04-25T00:35:15;97277.00;;;6.40
20848;BMP180;10584;50.854;12.902;2023-04-25T00:40:37;97274.00;;;6.40
20848;BMP180;10584;50.854;12.902;2023-04-25T00:46:09;97264.00;;;6.30
20848;BMP180;10584;50.854;12.902;2023-04-25T00:52:04;97257.00;;;6.30
20848;BMP180;10584;50.854;12.902;2023-04-25T00:57:48;97259.00;;;6.20
20848;BMP180;10584;50.854;12.902;2023-04-25T01:03:31;97264.00;;;6.10
20848;BMP180;10584;50.854;12.902;2023-04-25T01:08:55;97263.00;;;5.90
20848;BMP180;10584;50.854;12.902;2023-04-25T01:14:48;97249.00;;;5.90
20848;BMP180;10584;50.854;12.902;2023-04-25T01:20:29;97256.00;;;5.80
20848;BMP180;10584;50.854;12.902;2023-04-25T01:26:19;97254.00;;;5.80
20848;BMP180;10584;50.854;12.902;2023-04-25T01:31:45;97244.00;;;5.70
20848;BMP180;10584;50.854;12.902;2023-04-25T01:37:09;97234.00;;;5.90
20848;BMP180;10584;50.854;12.902;2023-04-25T01:42:52;97237.00;;;5.80
20848;BMP180;10584;50.854;12.902;2023-04-25T01:48:39;97239.00;;;5.80
20848;BMP180;10584;50.854;12.902;2023-04-25T01:54:18;97231.00;;;5.80
20848;BMP180;10584;50.854;12.902;2023-04-25T01:59:45;97234.00;;;6.00
20848;BMP180;10584;50.854;12.902;2023-04-25T02:05:35;97237.00;;;6.00
20848;BMP180;10584;50.854;12.902;2023-04-25T02:11:13;97230.00;;;6.10
20848;BMP180;10584;50.854;12.902;2023-04-25T02:17:08;97235.00;;;6.10
20848;BMP180;10584;50.854;12.902;2023-04-25T02:22:58;97236.00;;;6.10
20848;BMP180;10584;50.854;12.902;2023-04-25T02:28:37;97226.00;;;6.20
20848;BMP180;10584;50.854;12.902;2023-04-25T02:34:15;97226.00;;;6.30
20848;BMP180;10584;50.854;12.902;2023-04-25T02:39:43;97226.00;;;6.30
20848;BMP180;10584;50.854;12.902;2023-04-25T02:45:06;97214.00;;;6.40
20848;BMP180;10584;50.854;12.902;2023-04-25T02:50:28;97217.00;;;6.40
20848;BMP180;10584;50.854;12.902;2023-04-25T02:55:56;97208.00;;;6.50
20848;BMP180;10584;50.854;12.902;2023-04-25T03:01:52;97213.00;;;6.50
20848;BMP180;10584;50.854;12.902;2023-04-25T03:07:33;97207.00;;;6.50
20848;BMP180;10584;50.854;12.902;2023-04-25T03:13:08;97202.00;;;6.40
20848;BMP180;10584;50.854;12.902;2023-04-25T03:18:40;97203.00;;;6.50
20848;BMP180;10584;50.854;12.902;2023-04-25T03:24:07;97208.00;;;6.70
20848;BMP180;10584;50.854;12.902;2023-04-25T03:29:35;97196.00;;;6.80
20848;BMP180;10584;50.854;12.902;2023-04-25T03:34:58;97197.00;;;6.90
20848;BMP180;10584;50.854;12.902;2023-04-25T03:40:21;97212.00;;;7.00
20848;BMP180;10584;50.854;12.902;2023-04-25T03:46:14;97195.00;;;7.10
20848;BMP180;10584;50.854;12.902;2023-04-25T03:51:50;97199.00;;;7.10
20848;BMP180;10584;50.854;12.902;2023-04-25T03:57:50;97201.00;;;7.30
20848;BMP180;10584;50.854;12.902;2023-04-25T04:03:39;97195.00;;;7.30
20848;BMP180;10584;50.854;12.902;2023-04-25T04:09:28;97211.00;;;7.20
20848;BMP180;10584;50.854;12.902;2023-04-25T04:15:15;97206.00;;;7.30
20848;BMP180;10584;50.854;12.902;2023-04-25T04:20:38;97214.00;;;7.30
20848;BMP180;10584;50.854;12.902;2023-04-25T04:26:14;97218.00;;;7.30
20848;BMP180;10584;50.854;12.902;2023-04-25T04:32:08;97221.00;;;7.20
20848;BMP180;10584;50.854;12.902;2023-04-25T04:37:58;97230.00;;;7.30
20848;BMP180;10584;50.854;12.902;2023-04-25T04:43:38;97222.00;;;7.50
20848;BMP180;10584;50.854;12.902;2023-04-25T04:49:17;97222.00;;;7.40
20848;BMP180;10584;50.854;12.902;2023-04-25T04:54:59;97229.00;;;7.20
20848;BMP180;10584;50.854;12.902;2023-04-25T05:00:28;97239.00;;;7.30
20848;BMP180;10584;50.854;12.902;2023-04-25T05:06:35;97240.00;;;7.30
20848;BMP180;10584;50.854;12.902;2023-04-25T05:13:01;97238.00;;;7.40
20848;BMP180;10584;50.854;12.902;2023-04-25T05:19:06;97228.00;;;7.10
20848;BMP180;10584;50.854;12.902;2023-04-25T05:25:07;97231.00;;;7.40
20848;BMP180;10584;50.854;12.902;2023-04-25T05:30:47;97234.00;;;7.60
20848;BMP180;10584;50.854;12.902;2023-04-25T05:36:31;97234.00;;;7.70
20848;BMP180;10584;50.854;12.902;2023-04-25T05:42:00;97235.00;;;7.60
20848;BMP180;10584;50.854;12.902;2023-04-25T05:48:01;97238.00;;;7.40
20848;BMP180;10584;50.854;12.902;2023-04-25T05:53:48;97243.00;;;7.60
20848;BMP180;10584;50.854;12.902;2023-04-25T05:59:20;97240.00;;;7.50
20848;BMP180;10584;50.854;12.902;2023-04-25T06:04:52;97248.00;;;7.60
20848;BMP180;10584;50.854;12.902;2023-04-25T06:10:16;97249.00;;;7.70
20848;BMP180;10584;50.854;12.902;2023-04-25T06:15:38;97261.00;;;7.60
20848;BMP180;10584;50.854;12.902;2023-04-25T06:21:13;97268.00;;;7.80
20848;BMP180;10584;50.854;12.902;2023-04-25T06:26:49;97268.00;;;8.00
20848;BMP180;10584;50.854;12.902;2023-04-25T06:32:48;97274.00;;;7.80
20848;BMP180;10584;50.854;12.902;2023-04-25T06:38:43;97269.00;;;7.80
20848;BMP180;10584;50.854;12.902;2023-04-25T06:44:07;97277.00;;;7.80
20848;BMP180;10584;50.854;12.902;2023-04-25T06:49:35;97281.00;;;7.80
20848;BMP180;10584;50.854;12.902;2023-04-25T06:55:00;97281.00;;;7.70
20848;BMP180;10584;50.854;12.902;2023-04-25T07:00:34;97289.00;;;7.70
20848;BMP180;10584;50.854;12.902;2023-04-25T07:06:00;97292.00;;;7.80
20848;BMP180;10584;50.854;12.902;2023-04-25T07:11:40;97287.00;;;7.70
20848;BMP180;10584;50.854;12.902;2023-04-25T07:17:05;97297.00;;;7.60
20848;BMP180;10584;50.854;12.902;2023-04-25T07:22:49;97301.00;;;7.80
20848;BMP180;10584;50.854;12.902;2023-04-25T07:28:35;97294.00;;;8.10
20848;BMP180;10584;50.854;12.902;2023-04-25T07:34:17;97300.00;;;8.30
20848;BMP180;10584;50.854;12.902;2023-04-25T07:39:43;97312.00;;;8.40
20848;BMP180;10584;50.854;12.902;2023-04-25T07:45:04;97304.00;;;7.90
20848;BMP180;10584;50.854;12.902;2023-04-25T07:50:26;97318.00;;;8.00
20848;BMP180;10584;50.854;12.902;2023-04-25T07:55:54;97313.00;;;7.90
20848;BMP180;10584;50.854;12.902;2023-04-25T08:01:56;97327.00;;;7.70
20848;BMP180;10584;50.854;12.902;2023-04-25T08:07:37;97321.00;;;7.90
20848;BMP180;10584;50.854;12.902;2023-04-25T08:13:09;97317.00;;;8.30
20848;BMP180;10584;50.854;12.902;2023-04-25T08:18:43;97321.00;;;8.50
20848;BMP180;10584;50.854;12.902;2023-04-25T08:24:16;97326.00;;;8.20
20848;BMP180;10584;50.854;12.902;2023-04-25T08:29:44;97333.00;;;8.30
20848;BMP180;10584;50.854;12.902;2023-04-25T08:35:07;97345.00;;;8.30
20848;BMP180;10584;50.854;12.902;2023-04-25T08:40:29;97349.00;;;8.20
20848;BMP180;10584;50.854;12.902;2023-04-25T08:46:18;97356.00;;;8.20
20848;BMP180;10584;50.854;12.902;2023-04-25T08:52:16;97361.00;;;8.30
20848;BMP180;10584;50.854;12.902;2023-04-25T08:58:03;97364.00;;;8.20
20848;BMP180;10584;50.854;12.902;2023-04-25T09:03:44;97382.00;;;8.40
20848;BMP180;10584;50.854;12.902;2023-04-25T09:09:21;97381.00;;;8.30
20848;BMP180;10584;50.854;12.902;2023-04-25T09:14:42;97388.00;;;8.20
20848;BMP180;10584;50.854;12.902;2023-04-25T09:20:28;97390.00;;;8.10
20848;BMP180;10584;50.854;12.902;2023-04-25T09:26:01;97402.00;;;8.00
20848;BMP180;10584;50.854;12.902;2023-04-25T09:32:03;97408.00;;;8.00
20848;BMP180;10584;50.854;12.902;2023-04-25T09:37:59;97416.00;;;7.80
20848;BMP180;10584;50.854;12.902;2023-04-25T09:43:50;97420.00;;;7.90
20848;BMP180;10584;50.854;12.902;2023-04-25T09:49:30;97407.00;;;7.70
20848;BMP180;10584;50.854;12.902;2023-04-25T09:55:02;97422.00;;;8.00
20848;BMP180;10584;50.854;12.902;2023-04-25T10:00:27;97421.00;;;8.10
20848;BMP180;10584;50.854;12.902;2023-04-25T10:06:02;97423.00;;;8.30
20848;BMP180;10584;50.854;12.902;2023-04-25T10:11:51;97421.00;;;8.20
20848;BMP180;10584;50.854;12.902;2023-04-25T10:17:23;97423.00;;;8.10
20848;BMP180;10584;50.854;12.902;2023-04-25T10:23:12;97441.00;;;8.10
20848;BMP180;10584;50.854;12.902;2023-04-25T10:29:04;97460.00;;;7.80
20848;BMP180;10584;50.854;12.902;2023-04-25T10:34:39;97460.00;;;7.60
20848;BMP180;10584;50.854;12.902;2023-04-25T10:40:09;97458.00;;;7.60
20848;BMP180;10584;50.854;12.902;2023-04-25T10:45:51;97456.00;;;7.60
20848;BMP180;10584;50.854;12.902;2023-04-25T10:51:29;97470.00;;;7.50
20848;BMP180;10584;50.854;12.902;2023-04-25T10:57:42;97479.00;;;7.50
20848;BMP180;10584;50.854;12.902;2023-04-25T11:03:43;97477.00;;;7.40
20848;BMP180;10584;50.854;12.902;2023-04-25T11:09:24;97474.00;;;7.40
20848;BMP180;10584;50.854;12.902;2023-04-25T11:14:46;97480.00;;;7.30
20848;BMP180;10584;50.854;12.902;2023-04-25T11:20:08;97486.00;;;7.40
20848;BMP180;10584;50.854;12.902;2023-04-25T11:25:32;97481.00;;;7.20
20848;BMP180;10584;50.854;12.902;2023-04-25T11:30:58;97489.00;;;7.30
20848;BMP180;10584;50.854;12.902;2023-04-25T11:36:49;97502.00;;;7.20
20848;BMP180;10584;50.854;12.902;2023-04-25T11:42:12;97497.00;;;7.20
20848;BMP180;10584;50.854;12.902;2023-04-25T11:47:55;97494.00;;;7.40
20848;BMP180;10584;50.854;12.902;2023-04-25T11:53:40;97494.00;;;7.40
20848;BMP180;10584;50.854;12.902;2023-04-25T11:59:10;97505.00;;;7.40
20848;BMP180;10584;50.854;12.902;2023-04-25T12:04:43;97504.00;;;7.40
20848;BMP180;10584;50.854;12.902;2023-04-25T12:10:31;97517.00;;;7.40
20848;BMP180;10584;50.854;12.902;2023-04-25T12:15:59;97513.00;;;7.40
20848;BMP180;10584;50.854;12.902;2023-04-25T12:22:03;97514.00;;;7.20
20848;BMP180;10584;50.854;12.902;2023-04-25T12:28:08;97527.00;;;7.20
20848;BMP180;10584;50.854;12.902;2023-04-25T12:33:40;97539.00;;;7.20
20848;BMP180;10584;50.854;12.902;2023-04-25T12:39:17;97543.00;;;7.30
20848;BMP180;10584;50.854;12.902;2023-04-25T12:44:59;97542.00;;;7.00
20848;BMP180;10584;50.854;12.902;2023-04-25T12:50:20;97557.00;;;7.00
20848;BMP180;10584;50.854;12.902;2023-04-25T12:55:42;97549.00;;;6.70
20848;BMP180;10584;50.854;12.902;2023-04-25T13:01:04;97559.00;;;6.90
20848;BMP180;10584;50.854;12.902;2023-04-25T13:06:38;97564.00;;;6.90
20848;BMP180;10584;50.854;12.902;2023-04-25T13:12:13;97560.00;;;7.00
20848;BMP180;10584;50.854;12.902;2023-04-25T13:17:38;97550.00;;;7.00
20848;BMP180;10584;50.854;12.902;2023-04-25T13:23:26;97557.00;;;7.00
20848;BMP180;10584;50.854;12.902;2023-04-25T13:29:03;97567.00;;;7.20
20848;BMP180;10584;50.854;12.902;2023-04-25T13:34:30;97561.00;;;7.50
20848;BMP180;10584;50.854;12.902;2023-04-25T13:39:52;97560.00;;;7.70
20848;BMP180;10584;50.854;12.902;2023-04-25T13:45:14;97564.00;;;8.10
20848;BMP180;10584;50.854;12.902;2023-04-25T13:50:36;97565.00;;;8.10
20848;BMP180;10584;50.854;12.902;2023-04-25T13:56:00;97558.00;;;8.60
20848;BMP180;10584;50.854;12.902;2023-04-25T14:01:55;97558.00;;;8.60
20848;BMP180;10584;50.854;12.902;2023-04-25T14:07:48;97559.00;;;8.50
20848;BMP180;10584;50.854;12.902;2023-04-25T14:14:13;97550.00;;;8.60
20848;BMP180;10584;50.854;12.902;2023-04-25T14:20:21;97554.00;;;8.50
20848;BMP180;10584;50.854;12.902;2023-04-25T14:26:20;97565.00;;;8.60
20848;BMP180;10584;50.854;12.902;2023-04-25T14:37:48;97596.00;;;8.00
20848;BMP180;10584;50.854;12.902;2023-04-25T14:43:31;97596.00;;;7.50
20848;BMP180;10584;50.854;12.902;2023-04-25T14:49:10;97625.00;;;6.90
20848;BMP180;10584;50.854;12.902;2023-04-25T14:54:37;97622.00;;;6.70
20848;BMP180;10584;50.854;12.902;2023-04-25T14:59:59;97617.00;;;6.90
20848;BMP180;10584;50.854;12.902;2023-04-25T15:05:33;97628.00;;;6.80
20848;BMP180;10584;50.854;12.902;2023-04-25T15:11:25;97624.00;;;7.00
20848;BMP180;10584;50.854;12.902;2023-04-25T15:17:07;97635.00;;;7.10
20848;BMP180;10584;50.854;12.902;2023-04-25T15:22:49;97625.00;;;7.20
20848;BMP180;10584;50.854;12.902;2023-04-25T15:28:33;97616.00;;;7.40
20848;BMP180;10584;50.854;12.902;2023-04-25T15:34:13;97635.00;;;7.60
20848;BMP180;10584;50.854;12.902;2023-04-25T15:39:40;97633.00;;;7.90
20848;BMP180;10584;50.854;12.902;2023-04-25T15:45:03;97633.00;;;8.10
20848;BMP180;10584;50.854;12.902;2023-04-25T15:50:25;97630.00;;;8.20
20848;BMP180;10584;50.854;12.902;2023-04-25T15:55:57;97627.00;;;8.20
20848;BMP180;10584;50.854;12.902;2023-04-25T16:01:50;97641.00;;;8.10
20848;BMP180;10584;50.854;12.902;2023-04-25T16:07:27;97642.00;;;8.00
20848;BMP180;10584;50.854;12.902;2023-04-25T16:13:01;97642.00;;;8.00
20848;BMP180;10584;50.854;12.902;2023-04-25T16:18:30;97647.00;;;8.00
20848;BMP180;10584;50.854;12.902;2023-04-25T16:24:06;97641.00;;;7.90
20848;BMP180;10584;50.854;12.902;2023-04-25T16:29:34;97654.00;;;7.80
20848;BMP180;10584;50.854;12.902;2023-04-25T16:34:56;97653.00;;;7.90
20848;BMP180;10584;50.854;12.902;2023-04-25T16:40:19;97659.00;;;7.80
20848;BMP180;10584;50.854;12.902;2023-04-25T16:45:41;97656.00;;;7.50
20848;BMP180;10584;50.854;12.902;2023-04-25T16:51:17;97663.00;;;7.60
20848;BMP180;10584;50.854;12.902;2023-04-25T16:57:00;97665.00;;;7.60
20848;BMP180;10584;50.854;12.902;2023-04-25T17:02:30;97670.00;;;7.60
20848;BMP180;10584;50.854;12.902;2023-04-25T17:08:14;97685.00;;;7.70
20848;BMP180;10584;50.854;12.902;2023-04-25T17:13:41;97672.00;;;7.60
20848;BMP180;10584;50.854;12.902;2023-04-25T17:19:09;97679.00;;;7.60
20848;BMP180;10584;50.854;12.902;2023-04-25T17:24:38;97683.00;;;7.70
20848;BMP180;10584;50.854;12.902;2023-04-25T17:30:01;97696.00;;;7.70
20848;BMP180;10584;50.854;12.902;2023-04-25T17:35:24;97705.00;;;7.60
20848;BMP180;10584;50.854;12.902;2023-04-25T17:40:46;97698.00;;;7.50
20848;BMP180;10584;50.854;12.902;2023-04-25T17:46:22;97699.00;;;7.50
20848;BMP180;10584;50.854;12.902;2023-04-25T17:52:05;97716.00;;;7.50
20848;BMP180;10584;50.854;12.902;2023-04-25T17:57:44;97704.00;;;7.40
20848;BMP180;10584;50.854;12.902;2023-04-25T18:03:39;97723.00;;;7.50
20848;BMP180;10584;50.854;12.902;2023-04-25T18:09:23;97731.00;;;7.10
20848;BMP180;10584;50.854;12.902;2023-04-25T18:14:45;97727.00;;;7.30
20848;BMP180;10584;50.854;12.902;2023-04-25T18:20:12;97746.00;;;7.30
20848;BMP180;10584;50.854;12.902;2023-04-25T18:25:35;97745.00;;;7.20
20848;BMP180;10584;50.854;12.902;2023-04-25T18:31:10;97742.00;;;7.20
20848;BMP180;10584;50.854;12.902;2023-04-25T18:37:03;97760.00;;;7.10
20848;BMP180;10584;50.854;12.902;2023-04-25T18:42:42;97765.00;;;7.10
20848;BMP180;10584;50.854;12.902;2023-04-25T18:48:25;97777.00;;;6.90
20848;BMP180;10584;50.854;12.902;2023-04-25T18:54:05;97787.00;;;6.80
20848;BMP180;10584;50.854;12.902;2023-04-25T18:59:34;97793.00;;;6.80
20848;BMP180;10584;50.854;12.902;2023-04-25T19:05:02;97787.00;;;6.70
20848;BMP180;10584;50.854;12.902;2023-04-25T19:10:49;97794.00;;;6.50
20848;BMP180;10584;50.854;12.902;2023-04-25T19:16:59;97803.00;;;6.40
20848;BMP180;10584;50.854;12.902;2023-04-25T19:22:56;97808.00;;;6.20
20848;BMP180;10584;50.854;12.902;2023-04-25T19:28:37;97808.00;;;6.10
20848;BMP180;10584;50.854;12.902;2023-04-25T19:34:10;97814.00;;;6.00
20848;BMP180;10584;50.854;12.902;2023-04-25T19:39:39;97809.00;;;5.90
20848;BMP180;10584;50.854;12.902;2023-04-25T19:45:01;97819.00;;;5.60
20848;BMP180;10584;50.854;12.902;2023-04-25T19:50:22;97815.00;;;5.50
20848;BMP180;10584;50.854;12.902;2023-04-25T19:55:44;97820.00;;;5.50
20848;BMP180;10584;50.854;12.902;2023-04-25T20:01:06;97831.00;;;5.30
20848;BMP180;10584;50.854;12.902;2023-04-25T20:06:35;97830.00;;;5.20
20848;BMP180;10584;50.854;12.902;2023-04-25T20:12:20;97834.00;;;5.00
20848;BMP180;10584;50.854;12.902;2023-04-25T20:17:57;97844.00;;;4.90
20848;BMP180;10584;50.854;12.902;2023-04-25T20:23:24;97837.00;;;4.90
20848;BMP180;10584;50.854;12.902;2023-04-25T20:29:03;97837.00;;;4.90
20848;BMP180;10584;50.854;12.902;2023-04-25T20:34:33;97839.00;;;4.90
20848;BMP180;10584;50.854;12.902;2023-04-25T20:39:54;97826.00;;;4.80
20848;BMP180;10584;50.854;12.902;2023-04-25T20:45:15;97841.00;;;4.80
20848;BMP180;10584;50.854;12.902;2023-04-25T20:50:38;97842.00;;;4.80
20848;BMP180;10584;50.854;12.902;2023-04-25T20:56:15;97831.00;;;4.70
20848;BMP180;10584;50.854;12.902;2023-04-25T21:02:04;97850.00;;;4.70
20848;BMP180;10584;50.854;12.902;2023-04-25T21:07:36;97858.00;;;4.60
20848;BMP180;10584;50.854;12.902;2023-04-25T21:13:05;97861.00;;;4.70
20848;BMP180;10584;50.854;12.902;2023-04-25T21:18:36;97865.00;;;4.80
20848;BMP180;10584;50.854;12.902;2023-04-25T21:24:12;97875.00;;;4.80
20848;BMP180;10584;50.854;12.902;2023-04-25T21:29:39;97873.00;;;4.80
20848;BMP180;10584;50.854;12.902;2023-04-25T21:35:01;97869.00;;;4.80
20848;BMP180;10584;50.854;12.902;2023-04-25T21:40:23;97873.00;;;4.90
20848;BMP180;10584;50.854;12.902;2023-04-25T21:45:44;97871.00;;;4.70
20848;BMP180;10584;50.854;12.902;2023-04-25T21:51:45;97871.00;;;4.90
20848;BMP180;10584;50.854;12.902;2023-04-25T21:57:22;97884.00;;;5.00
20848;BMP180;10584;50.854;12.902;2023-04-25T22:03:07;97880.00;;;5.00
20848;BMP180;10584;50.854;12.902;2023-04-25T22:08:52;97879.00;;;4.90
20848;BMP180;10584;50.854;12.902;2023-04-25T22:14:29;97881.00;;;5.00
20848;BMP180;10584;50.854;12.902;2023-04-25T22:20:15;97895.00;;;4.90
20848;BMP180;10584;50.854;12.902;2023-04-25T22:26:15;97900.00;;;4.80
20848;BMP180;10584;50.854;12.902;2023-04-25T22:32:09;97902.00;;;4.80
20848;BMP180;10584;50.854;12.902;2023-04-25T22:37:41;97904.00;;;4.70
20848;BMP180;10584;50.854;12.902;2023-04-25T22:43:18;97905.00;;;4.60
20848;BMP180;10584;50.854;12.902;2023-04-25T22:48:57;97914.00;;;4.60
20848;BMP180;10584;50.854;12.902;2023-04-25T22:54:36;97937.00;;;4.70
20848;BMP180;10584;50.854;12.902;2023-04-25T22:59:58;97947.00;;;4.60
20848;BMP180;10584;50.854;12.902;2023-04-25T23:05:24;97955.00;;;4.50
20848;BMP180;10584;50.854;12.902;2023-04-25T23:11:18;97952.00;;;4.40
20848;BMP180;10584;50.854;12.902;2023-04-25T23:17:02;97941.00;;;4.30
20848;BMP180;10584;50.854;12.902;2023-04-25T23:22:27;97952.00;;;4.40
20848;BMP180;10584;50.854;12.902;2023-04-25T23:28:18;97948.00;;;4.30
20848;BMP180;10584;50.854;12.902;2023-04-25T23:33:53;97941.00;;;4.40
20848;BMP180;10584;50.854;12.902;2023-04-25T23:39:31;97950.00;;;4.50
20848;BMP180;10584;50.854;12.902;2023-04-25T23:44:53;97939.00;;;4.50
20848;BMP180;10584;50.854;12.902;2023-04-25T23:50:15;97947.00;;;4.50
20848;BMP180;10584;50.854;12.902;2023-04-25T23:55:36;97943.00;;;4.50
